createdAt,value
2017-08-01T00:00:02.489Z,1015.9
2017-08-01T00:01:01.955Z,1015.8
2017-08-01T00:02:01.153Z,1015.8
2017-08-01T00:03:00.754Z,1015.8
2017-08-01T00:03:59.818Z,1015.8
2017-08-01T00:04:59.399Z,1015.8
2017-08-01T00:05:58.847Z,1015.7
2017-08-01T00:06:57.922Z,1015.7
2017-08-01T00:07:57.513Z,1015.7
2017-08-01T00:08:56.699Z,1015.6
2017-08-01T00:09:56.415Z,1015.7
2017-08-01T00:10:55.619Z,1015.7
2017-08-01T00:11:54.902Z,1015.6
2017-08-01T00:12:54.107Z,1015.7
2017-08-01T00:13:24.769Z,1015.7
2017-08-01T00:13:55.043Z,1015.7
2017-08-01T00:14:25.540Z,1015.7
2017-08-01T00:14:55.929Z,1015.7
2017-08-01T00:15:26.306Z,1015.7
2017-08-01T00:15:56.698Z,1015.8
2017-08-01T00:16:27.239Z,1015.8
2017-08-01T00:17:50.984Z,1015.8
2017-08-01T00:19:50.074Z,1015.7
2017-08-01T00:20:49.063Z,1015.7
2017-08-01T00:21:48.636Z,1015.6
2017-08-01T00:22:47.835Z,1015.6
2017-08-01T00:23:47.412Z,1015.6
2017-08-01T00:24:46.616Z,1015.6
2017-08-01T00:25:46.295Z,1015.7
2017-08-01T00:26:45.380Z,1015.6
2017-08-01T00:27:44.578Z,1015.6
2017-08-01T00:29:43.677Z,1015.6
2017-08-01T00:30:42.944Z,1015.6
2017-08-01T00:31:42.135Z,1015.6
2017-08-01T00:32:41.720Z,1015.6
2017-08-01T00:33:40.908Z,1015.6
2017-08-01T00:34:40.607Z,1015.6
2017-08-01T00:35:39.800Z,1015.6
2017-08-01T00:37:38.553Z,1015.6
2017-08-01T00:38:37.640Z,1015.6
2017-08-01T00:39:37.341Z,1015.7
2017-08-01T00:40:36.535Z,1015.7
2017-08-01T00:41:35.741Z,1015.6
2017-08-01T00:42:35.439Z,1015.6
2017-08-01T00:43:34.621Z,1015.6
2017-08-01T00:44:33.826Z,1015.6
2017-08-01T00:45:33.514Z,1015.6
2017-08-01T00:46:32.717Z,1015.5
2017-08-01T00:47:31.942Z,1015.5
2017-08-01T00:48:31.652Z,1015.5
2017-08-01T00:49:30.853Z,1015.4
2017-08-01T00:50:30.043Z,1015.4
2017-08-01T00:51:29.743Z,1015.4
2017-08-01T00:52:28.932Z,1015.4
2017-08-01T00:53:28.393Z,1015.5
2017-08-01T00:54:27.580Z,1015.5
2017-08-01T00:55:27.185Z,1015.5
2017-08-01T00:56:26.385Z,1015.6
2017-08-01T00:57:25.467Z,1015.6
2017-08-01T00:58:25.048Z,1015.6
2017-08-01T00:59:24.236Z,1015.6
2017-08-01T01:00:23.825Z,1015.6
2017-08-01T01:01:22.923Z,1015.6
2017-08-01T01:02:22.376Z,1015.5
2017-08-01T01:03:21.955Z,1015.6
2017-08-01T01:04:21.026Z,1015.6
2017-08-01T01:05:20.728Z,1015.6
2017-08-01T01:06:19.920Z,1015.7
2017-08-01T01:06:50.202Z,1015.7
2017-08-01T01:07:20.724Z,1015.7
2017-08-01T01:08:18.401Z,1015.7
2017-08-01T01:09:17.993Z,1015.7
2017-08-01T01:10:17.568Z,1015.7
2017-08-01T01:11:16.764Z,1015.7
2017-08-01T01:11:47.268Z,1015.7
2017-08-01T01:12:17.777Z,1015.7
2017-08-01T01:13:15.616Z,1015.6
2017-08-01T01:14:14.808Z,1015.6
2017-08-01T01:15:13.994Z,1015.4
2017-08-01T01:16:13.689Z,1015.4
2017-08-01T01:17:12.660Z,1015.5
2017-08-01T01:18:12.370Z,1015.4
2017-08-01T01:19:11.463Z,1015.4
2017-08-01T01:20:11.062Z,1015.5
2017-08-01T01:21:10.252Z,1015.4
2017-08-01T01:22:09.439Z,1015.4
2017-08-01T01:22:39.941Z,1015.4
2017-08-01T01:23:10.223Z,1015.5
2017-08-01T01:23:40.726Z,1015.5
2017-08-01T01:24:10.983Z,1015.5
2017-08-01T01:25:07.653Z,1015.5
2017-08-01T01:26:07.236Z,1015.5
2017-08-01T01:27:06.600Z,1015.5
2017-08-01T01:28:05.808Z,1015.5
2017-08-01T01:29:04.900Z,1015.5
2017-08-01T01:30:04.483Z,1015.5
2017-08-01T01:31:03.713Z,1015.4
2017-08-01T01:32:02.904Z,1015.4
2017-08-01T01:33:02.500Z,1015.4
2017-08-01T01:34:01.597Z,1015.4
2017-08-01T01:35:01.306Z,1015.4
2017-08-01T01:36:00.499Z,1015.4
2017-08-01T01:37:00.109Z,1015.5
2017-08-01T01:37:59.298Z,1015.4
2017-08-01T01:38:58.497Z,1015.3
2017-08-01T01:39:58.078Z,1015.4
2017-08-01T01:40:57.264Z,1015.4
2017-08-01T01:42:55.855Z,1015.6
2017-08-01T01:43:55.545Z,1015.6
2017-08-01T01:44:54.621Z,1015.7
2017-08-01T01:45:53.821Z,1015.7
2017-08-01T01:46:24.212Z,1015.7
2017-08-01T01:46:54.600Z,1015.7
2017-08-01T01:47:25.108Z,1015.7
2017-08-01T01:47:55.494Z,1015.7
2017-08-01T01:48:52.172Z,1015.7
2017-08-01T01:49:51.242Z,1015.8
2017-08-01T01:50:50.811Z,1015.8
2017-08-01T01:51:50.003Z,1015.8
2017-08-01T01:52:49.694Z,1015.8
2017-08-01T01:53:48.898Z,1015.8
2017-08-01T01:54:47.969Z,1015.8
2017-08-01T01:55:47.663Z,1015.8
2017-08-01T01:56:46.863Z,1015.9
2017-08-01T01:57:46.063Z,1015.9
2017-08-01T01:58:45.413Z,1015.9
2017-08-01T02:00:44.381Z,1016
2017-08-01T02:01:43.583Z,1015.9
2017-08-01T02:02:13.980Z,1015.9
2017-08-01T02:02:44.495Z,1015.8
2017-08-01T02:03:15.153Z,1015.8
2017-08-01T02:03:45.671Z,1015.8
2017-08-01T02:04:15.938Z,1015.8
2017-08-01T02:05:41.191Z,1015.7
2017-08-01T02:06:40.389Z,1015.7
2017-08-01T02:07:39.595Z,1015.7
2017-08-01T02:08:39.296Z,1015.7
2017-08-01T02:09:38.490Z,1015.7
2017-08-01T02:10:37.672Z,1015.8
2017-08-01T02:11:37.365Z,1015.9
2017-08-01T02:12:36.576Z,1016
2017-08-01T02:13:35.660Z,1016.1
2017-08-01T02:14:06.165Z,1016.1
2017-08-01T02:14:36.673Z,1016.1
2017-08-01T02:15:07.186Z,1016.1
2017-08-01T02:15:37.594Z,1016.2
2017-08-01T02:16:08.096Z,1016.2
2017-08-01T02:17:33.350Z,1016.3
2017-08-01T02:18:32.430Z,1016.3
2017-08-01T02:19:32.141Z,1016.4
2017-08-01T02:20:31.346Z,1016.4
2017-08-01T02:21:30.528Z,1016.4
2017-08-01T02:22:30.107Z,1016.4
2017-08-01T02:23:29.580Z,1016.5
2017-08-01T02:24:28.647Z,1016.6
2017-08-01T02:25:28.224Z,1016.7
2017-08-01T02:26:27.412Z,1016.8
2017-08-01T02:27:26.605Z,1016.7
2017-08-01T02:28:26.194Z,1016.7
2017-08-01T02:29:25.791Z,1016.8
2017-08-01T02:30:24.980Z,1017
2017-08-01T02:31:24.079Z,1017
2017-08-01T02:32:23.538Z,1017
2017-08-01T02:33:23.127Z,1017
2017-08-01T02:33:53.522Z,1017
2017-08-01T02:34:23.790Z,1016.9
2017-08-01T02:34:54.191Z,1016.9
2017-08-01T02:35:24.474Z,1016.7
2017-08-01T02:35:54.984Z,1016.7
2017-08-01T02:37:20.511Z,1016.7
2017-08-01T02:38:19.715Z,1016.6
2017-08-01T02:39:18.919Z,1016.6
2017-08-01T02:40:18.626Z,1016.6
2017-08-01T02:41:17.825Z,1016.3
2017-08-01T02:42:17.038Z,1016.2
2017-08-01T02:43:16.745Z,1016.1
2017-08-01T02:44:15.960Z,1015.8
2017-08-01T02:45:15.553Z,1015.4
2017-08-01T02:46:14.534Z,1015.2
2017-08-01T02:47:14.235Z,1015
2017-08-01T02:48:13.421Z,1014.9
2017-08-01T02:49:12.889Z,1014.9
2017-08-01T02:50:12.088Z,1015.1
2017-08-01T02:51:11.293Z,1015.1
2017-08-01T02:52:10.991Z,1014.8
2017-08-01T02:53:10.112Z,1014.8
2017-08-01T02:54:09.448Z,1014.1
2017-08-01T02:55:09.031Z,1013.9
2017-08-01T02:55:39.303Z,1013.9
2017-08-01T02:56:09.793Z,1013.9
2017-08-01T02:56:40.171Z,1013.9
2017-08-01T02:58:07.061Z,1013.9
2017-08-01T02:59:06.564Z,1014.1
2017-08-01T03:00:05.753Z,1014.2
2017-08-01T03:01:05.371Z,1014.4
2017-08-01T03:02:04.582Z,1014.4
2017-08-01T03:03:03.790Z,1014.6
2017-08-01T03:04:03.093Z,1014.7
2017-08-01T03:05:02.803Z,1014.8
2017-08-01T03:06:01.775Z,1014.9
2017-08-01T03:07:01.359Z,1014.8
2017-08-01T03:08:00.565Z,1014.8
2017-08-01T03:09:00.246Z,1014.7
2017-08-01T03:09:59.448Z,1014.5
2017-08-01T03:10:59.033Z,1014.6
2017-08-01T03:11:29.437Z,1014.6
2017-08-01T03:12:00.083Z,1014.6
2017-08-01T03:12:57.651Z,1014.7
2017-08-01T03:13:56.844Z,1014.8
2017-08-01T03:14:56.030Z,1014.8
2017-08-01T03:15:55.613Z,1014.8
2017-08-01T03:16:54.804Z,1014.8
2017-08-01T03:17:54.499Z,1014.8
2017-08-01T03:18:53.573Z,1014.8
2017-08-01T03:19:53.033Z,1014.8
2017-08-01T03:20:52.480Z,1014.8
2017-08-01T03:21:51.679Z,1014.8
2017-08-01T03:22:51.137Z,1015
2017-08-01T03:23:50.711Z,1015.1
2017-08-01T03:24:49.800Z,1015.2
2017-08-01T03:25:48.985Z,1015.4
2017-08-01T03:26:48.690Z,1015.4
2017-08-01T03:27:47.764Z,1015.3
2017-08-01T03:28:47.456Z,1015.2
2017-08-01T03:29:46.515Z,1015.1
2017-08-01T03:30:46.240Z,1015.3
2017-08-01T03:31:45.344Z,1015.5
2017-08-01T03:32:44.912Z,1015.5
2017-08-01T03:33:44.001Z,1015.8
2017-08-01T03:34:43.579Z,1016.1
2017-08-01T03:35:42.654Z,1016.2
2017-08-01T03:36:42.363Z,1016.1
2017-08-01T03:37:41.570Z,1015.7
2017-08-01T03:38:40.767Z,1015.4
2017-08-01T03:39:40.353Z,1015.2
2017-08-01T03:40:39.552Z,1015.3
2017-08-01T03:41:39.130Z,1015.7
2017-08-01T03:42:09.642Z,1015.7
2017-08-01T03:42:40.143Z,1016.1
2017-08-01T03:43:10.636Z,1016.1
2017-08-01T03:43:40.895Z,1016.4
2017-08-01T03:44:11.399Z,1016.4
2017-08-01T03:45:36.537Z,1016.6
2017-08-01T03:46:35.618Z,1016.7
2017-08-01T03:47:35.315Z,1016.7
2017-08-01T03:48:34.518Z,1016.7
2017-08-01T03:49:34.096Z,1016.7
2017-08-01T03:50:33.302Z,1016.7
2017-08-01T03:51:32.376Z,1016.6
2017-08-01T03:52:31.959Z,1016.5
2017-08-01T03:53:31.148Z,1016.4
2017-08-01T03:54:30.495Z,1016.3
2017-08-01T03:55:30.188Z,1016.2
2017-08-01T03:56:29.388Z,1016.2
2017-08-01T03:57:28.729Z,1016.2
2017-08-01T03:58:28.209Z,1016.2
2017-08-01T03:59:27.406Z,1016.4
2017-08-01T04:00:27.102Z,1016.7
2017-08-01T04:01:26.190Z,1016.9
2017-08-01T04:02:25.378Z,1017.2
2017-08-01T04:03:25.091Z,1017.4
2017-08-01T04:04:24.284Z,1017.4
2017-08-01T04:04:54.801Z,1017.4
2017-08-01T04:05:25.298Z,1017.4
2017-08-01T04:05:55.813Z,1017.4
2017-08-01T04:08:21.579Z,1018.5
2017-08-01T04:09:21.160Z,1018.6
2017-08-01T04:10:20.361Z,1018.8
2017-08-01T04:11:19.949Z,1018.9
2017-08-01T04:12:19.412Z,1018.9
2017-08-01T04:13:18.613Z,1018.8
2017-08-01T04:14:17.953Z,1018.7
2017-08-01T04:15:17.303Z,1018.7
2017-08-01T04:16:16.391Z,1018.7
2017-08-01T04:17:16.091Z,1018.9
2017-08-01T04:18:15.289Z,1019.2
2017-08-01T04:19:14.873Z,1019.4
2017-08-01T04:20:13.940Z,1019.6
2017-08-01T04:21:13.645Z,1019.8
2017-08-01T04:22:12.739Z,1020
2017-08-01T04:22:43.251Z,1020
2017-08-01T04:29:08.465Z,1020.5
2017-08-01T04:30:07.549Z,1020.7
2017-08-01T04:36:03.713Z,1021
2017-08-01T04:36:34.218Z,1021
2017-08-01T04:41:00.287Z,1020.8
2017-08-01T04:41:59.880Z,1020.7
2017-08-01T04:42:58.965Z,1020.7
2017-08-01T04:44:58.055Z,1020.6
2017-08-01T04:45:57.142Z,1020.6
2017-08-01T04:46:56.839Z,1020.5
2017-08-01T04:47:56.045Z,1020.4
2017-08-01T04:48:55.512Z,1020.2
2017-08-01T04:49:54.587Z,1020
2017-08-01T04:50:53.791Z,1019.9
2017-08-01T04:51:53.488Z,1019.7
2017-08-01T04:52:52.722Z,1019.6
2017-08-01T04:53:51.919Z,1019.6
2017-08-01T04:54:51.107Z,1019.5
2017-08-01T04:55:50.699Z,1019.3
2017-08-01T04:56:49.897Z,1019.3
2017-08-01T04:57:49.480Z,1019.4
2017-08-01T04:58:48.686Z,1019.5
2017-08-01T05:00:47.271Z,1019.4
2017-08-01T05:01:46.473Z,1019.4
2017-08-01T05:02:46.071Z,1018.9
2017-08-01T05:03:45.540Z,1018.8
2017-08-01T05:04:44.509Z,1018.7
2017-08-01T05:06:43.097Z,1018.3
2017-08-01T05:07:42.802Z,1018.2
2017-08-01T05:08:41.877Z,1018.2
2017-08-01T05:09:41.577Z,1018.2
2017-08-01T05:10:40.763Z,1018
2017-08-01T05:11:39.973Z,1017.9
2017-08-01T05:12:39.166Z,1017.7
2017-08-01T05:13:38.868Z,1017.6
2017-08-01T05:14:37.841Z,1017.4
2017-08-01T05:15:37.426Z,1017.2
2017-08-01T05:16:36.630Z,1017
2017-08-01T05:17:35.717Z,1016.9
2017-08-01T05:18:35.431Z,1016.9
2017-08-01T05:19:34.633Z,1016.9
2017-08-01T05:21:33.218Z,1017.2
2017-08-01T05:22:32.683Z,1017.4
2017-08-01T05:23:31.747Z,1017.6
2017-08-01T05:24:31.441Z,1017.6
2017-08-01T05:25:30.636Z,1017.5
2017-08-01T05:26:30.101Z,1017.2
2017-08-01T05:27:29.180Z,1016.9
2017-08-01T05:28:28.381Z,1016.6
2017-08-01T05:29:28.086Z,1016.6
2017-08-01T05:30:27.268Z,1016.8
2017-08-01T05:30:57.768Z,1016.8
2017-08-01T05:31:28.266Z,1017
2017-08-01T05:31:58.766Z,1017
2017-08-01T05:33:25.139Z,1017.1
2017-08-01T05:34:24.719Z,1017.1
2017-08-01T05:35:23.921Z,1017.1
2017-08-01T05:36:23.111Z,1017.1
2017-08-01T05:38:21.698Z,1017
2017-08-01T05:39:21.281Z,1017
2017-08-01T05:41:19.746Z,1017.4
2017-08-01T05:42:18.938Z,1017.6
2017-08-01T05:43:18.642Z,1017.7
2017-08-01T05:44:17.838Z,1017.8
2017-08-01T05:45:17.032Z,1017.8
2017-08-01T05:46:16.249Z,1017.9
2017-08-01T05:47:15.833Z,1017.9
2017-08-01T05:48:15.040Z,1017.8
2017-08-01T05:49:14.239Z,1017.8
2017-08-01T05:50:13.443Z,1017.8
2017-08-01T05:51:13.020Z,1017.7
2017-08-01T05:52:12.211Z,1017.7
2017-08-01T05:53:11.410Z,1017.7
2017-08-01T06:10:59.266Z,1017.7
2017-08-01T06:11:29.772Z,1017.7
2017-08-01T06:15:55.832Z,1017.6
2017-08-01T06:17:54.417Z,1017.8
2017-08-01T06:18:53.877Z,1017.7
2017-08-01T06:20:52.479Z,1017.4
2017-08-01T06:23:50.458Z,1017.5
2017-08-01T06:24:20.847Z,1017.5
2017-08-01T06:27:48.019Z,1017.1
2017-08-01T06:45:35.874Z,1016.8
2017-08-01T07:07:20.675Z,1016.6
2017-08-01T09:13:00.496Z,1016.3
2017-08-01T10:15:24.445Z,1016.1
2017-08-01T13:47:49.070Z,1015.2
2017-08-01T13:48:19.469Z,1015.2
2017-08-01T13:48:49.983Z,1015.2
2017-08-01T13:49:48.685Z,1015.2
2017-08-01T13:53:46.940Z,1015.2
2017-08-01T13:54:46.401Z,1015.2
2017-08-01T13:55:46.108Z,1015.2
2017-08-01T13:56:45.840Z,1015.2
2017-08-01T13:57:45.545Z,1015.2
2017-08-01T13:58:45.257Z,1015.2
2017-08-01T13:59:44.966Z,1015.2
2017-08-01T14:01:43.937Z,1015.2
2017-08-01T16:51:40.901Z,1015.5
2017-08-01T16:52:40.603Z,1015.5
2017-08-01T16:53:40.318Z,1015.5
2017-08-01T16:54:10.829Z,1015.5
2017-08-01T16:58:38.192Z,1015.7
2017-08-01T16:59:37.782Z,1015.7
2017-08-01T17:02:36.650Z,1015.7
2017-08-01T17:22:28.723Z,1015.4
2017-08-01T17:23:28.225Z,1015.4
2017-08-01T17:24:27.885Z,1015.4
2017-08-01T17:24:58.273Z,1015.4
2017-08-01T17:25:28.792Z,1015.4
2017-08-01T17:25:59.338Z,1015.4
2017-08-01T17:26:29.616Z,1015.4
2017-08-01T17:27:00.136Z,1015.4
2017-08-01T17:30:25.307Z,1015.2
2017-08-01T17:32:24.798Z,1015.2
2017-08-01T17:34:23.900Z,1015.3
2017-08-01T17:35:23.616Z,1015.3
2017-08-01T17:36:23.209Z,1015.4
2017-08-01T17:38:22.095Z,1015.4
2017-08-01T17:39:21.799Z,1015.4
2017-08-01T17:45:18.968Z,1015.4
2017-08-01T17:46:18.575Z,1015.5
2017-08-01T17:51:16.857Z,1015.5
2017-08-01T17:53:15.958Z,1015.5
2017-08-01T17:54:15.431Z,1015.5
2017-08-01T17:55:15.146Z,1015.5
2017-08-01T18:38:55.788Z,1015.5
2017-08-01T18:39:55.085Z,1015.4
2017-08-01T18:40:54.359Z,1015.4
2017-08-01T18:43:53.411Z,1015.5
2017-08-01T18:46:51.661Z,1015.5
2017-08-01T18:47:51.258Z,1015.6
2017-08-01T18:48:50.839Z,1015.6
2017-08-01T18:55:47.891Z,1015.9
2017-08-01T18:58:46.388Z,1016.1
2017-08-01T19:00:45.500Z,1016.1
2017-08-01T19:01:44.639Z,1016.1
2017-08-01T19:05:43.061Z,1016.1
2017-08-01T19:08:41.554Z,1016.1
2017-08-01T19:09:41.256Z,1016.1
2017-08-01T19:12:39.757Z,1016.1
2017-08-01T19:16:37.523Z,1016.1
2017-08-01T19:18:36.654Z,1016
2017-08-01T19:19:07.061Z,1016
2017-08-01T19:20:35.484Z,1016
2017-08-01T19:21:35.108Z,1016.1
2017-08-01T19:26:32.909Z,1016.2
2017-08-01T19:39:26.352Z,1016.5
2017-08-01T19:40:25.480Z,1016.5
2017-08-01T19:41:25.371Z,1016.5
2017-08-01T19:48:21.806Z,1016.3
2017-08-01T19:54:18.537Z,1016.4
2017-08-01T19:56:17.529Z,1016.5
2017-08-01T20:05:12.984Z,1016.3
2017-08-01T20:06:12.211Z,1016.4
2017-08-01T20:07:11.940Z,1016.4
2017-08-01T20:08:11.206Z,1016.5
2017-08-01T20:09:10.992Z,1016.6
2017-08-01T20:10:10.568Z,1016.6
2017-08-01T20:11:09.731Z,1016.7
2017-08-01T20:12:09.318Z,1016.7
2017-08-01T20:12:39.837Z,1016.7
2017-08-01T20:13:10.353Z,1016.6
2017-08-01T20:13:40.774Z,1016.6
2017-08-01T20:14:11.172Z,1016.5
2017-08-01T20:14:41.693Z,1016.5
2017-08-01T20:15:12.209Z,1016.3
2017-08-01T20:16:07.397Z,1016.3
2017-08-01T20:17:06.491Z,1016.3
2017-08-01T20:18:06.199Z,1016.2
2017-08-01T20:19:05.679Z,1016.3
2017-08-01T20:20:04.904Z,1016.2
2017-08-01T20:21:04.496Z,1016.1
2017-08-01T20:22:03.971Z,1016.1
2017-08-01T20:23:03.689Z,1015.9
2017-08-01T20:24:02.891Z,1015.9
2017-08-01T20:25:02.591Z,1015.9
2017-08-01T20:26:02.070Z,1016
2017-08-01T20:27:01.275Z,1016.2
2017-08-01T20:28:00.974Z,1016.3
2017-08-01T20:29:00.516Z,1016.4
2017-08-01T20:30:00.100Z,1016.4
2017-08-01T20:30:59.296Z,1016.4
2017-08-01T20:31:58.903Z,1016.4
2017-08-01T20:32:29.435Z,1016.4
2017-08-01T20:33:57.616Z,1016.5
2017-08-01T20:34:57.190Z,1016.5
2017-08-01T20:35:56.653Z,1016.7
2017-08-01T20:36:56.353Z,1016.7
2017-08-01T20:37:55.575Z,1016.7
2017-08-01T20:38:55.291Z,1016.7
2017-08-01T20:39:54.374Z,1016.6
2017-08-01T20:40:53.975Z,1016.7
2017-08-01T20:41:53.620Z,1016.7
2017-08-01T20:42:53.205Z,1016.7
2017-08-01T20:43:23.601Z,1016.7
2017-08-01T20:44:51.996Z,1016.7
2017-08-01T20:45:51.584Z,1016.6
2017-08-01T20:46:50.791Z,1016.7
2017-08-01T20:47:50.408Z,1016.7
2017-08-01T20:48:49.613Z,1016.8
2017-08-01T20:49:49.324Z,1016.8
2017-08-01T20:50:48.525Z,1016.8
2017-08-01T20:51:48.375Z,1016.8
2017-08-01T20:52:47.719Z,1016.8
2017-08-01T20:54:46.841Z,1016.7
2017-08-01T20:55:46.052Z,1016.7
2017-08-01T20:56:45.757Z,1016.6
2017-08-01T20:57:44.976Z,1016.6
2017-08-01T20:58:44.565Z,1016.6
2017-08-01T20:59:43.766Z,1016.5
2017-08-01T21:00:43.479Z,1016.5
2017-08-01T21:01:42.695Z,1016.5
2017-08-01T21:02:42.288Z,1016.7
2017-08-01T21:03:41.881Z,1016.7
2017-08-01T21:04:40.972Z,1016.7
2017-08-01T21:05:40.676Z,1016.8
2017-08-01T21:06:39.882Z,1016.8
2017-08-01T21:07:39.470Z,1016.9
2017-08-01T21:08:39.189Z,1017
2017-08-01T21:09:38.283Z,1017
2017-08-01T21:10:37.983Z,1017
2017-08-01T21:11:37.183Z,1017
2017-08-01T21:12:36.781Z,1017.1
2017-08-01T21:13:36.369Z,1017
2017-08-01T21:14:35.578Z,1017.1
2017-08-01T21:15:35.299Z,1017.1
2017-08-01T21:16:34.516Z,1017.1
2017-08-01T21:17:34.107Z,1017
2017-08-01T21:18:33.322Z,1017
2017-08-01T21:19:33.042Z,1017
2017-08-01T21:20:32.242Z,1016.9
2017-08-01T21:21:31.956Z,1016.9
2017-08-01T21:22:31.448Z,1016.8
2017-08-01T21:23:31.031Z,1016.8
2017-08-01T21:24:30.128Z,1016.9
2017-08-01T21:25:29.602Z,1016.9
2017-08-01T21:26:29.305Z,1016.8
2017-08-01T21:27:28.515Z,1016.8
2017-08-01T21:28:27.872Z,1016.9
2017-08-01T21:29:27.573Z,1016.9
2017-08-01T21:30:27.175Z,1016.9
2017-08-01T21:31:26.268Z,1016.9
2017-08-01T21:32:25.860Z,1016.9
2017-08-01T21:33:25.335Z,1017
2017-08-01T21:34:24.923Z,1017.1
2017-08-01T21:35:24.128Z,1017.1
2017-08-01T21:36:23.831Z,1017.1
2017-08-01T21:37:23.037Z,1017.1
2017-08-01T21:38:22.640Z,1017.1
2017-08-01T21:39:21.851Z,1017.1
2017-08-01T21:39:52.251Z,1017.1
2017-08-01T21:40:22.782Z,1017.1
2017-08-01T21:40:53.300Z,1017.1
2017-08-01T21:41:23.821Z,1017.1
2017-08-01T21:41:54.245Z,1017.1
2017-08-01T21:42:24.644Z,1017
2017-08-01T21:42:55.181Z,1017
2017-08-01T21:44:19.440Z,1017.1
2017-08-01T21:45:18.709Z,1017.1
2017-08-01T21:46:18.313Z,1017.1
2017-08-01T21:47:17.568Z,1017
2017-08-01T21:48:16.772Z,1017
2017-08-01T21:49:16.496Z,1017
2017-08-01T21:50:15.653Z,1017.1
2017-08-01T21:51:15.355Z,1017.1
2017-08-01T21:52:14.568Z,1017.1
2017-08-01T21:53:14.197Z,1017.2
2017-08-01T21:54:13.787Z,1017.3
2017-08-01T21:54:44.313Z,1017.3
2017-08-01T21:55:14.709Z,1017.4
2017-08-01T21:56:12.402Z,1017.4
2017-08-01T21:57:12.118Z,1017.3
2017-08-01T21:58:11.205Z,1017.4
2017-08-01T21:59:11.068Z,1017.4
2017-08-01T22:00:10.544Z,1017.5
2017-08-01T22:01:09.627Z,1017.5
2017-08-01T22:02:09.223Z,1017.4
2017-08-01T22:03:08.417Z,1017.4
2017-08-01T22:05:07.520Z,1017.3
2017-08-01T22:06:06.728Z,1017.2
2017-08-01T22:07:06.324Z,1017.2
2017-08-01T22:08:06.042Z,1017.3
2017-08-01T22:09:05.243Z,1017.3
2017-08-01T22:10:04.841Z,1017.4
2017-08-01T22:11:03.930Z,1017.4
2017-08-01T22:11:34.450Z,1017.4
2017-08-01T22:12:04.867Z,1017.4
2017-08-01T22:13:03.229Z,1017.5
2017-08-01T22:14:02.435Z,1017.5
2017-08-01T22:15:02.154Z,1017.5
2017-08-01T22:16:01.368Z,1017.5
2017-08-01T22:17:00.956Z,1017.6
2017-08-01T22:18:00.057Z,1017.6
2017-08-01T22:18:59.539Z,1017.5
2017-08-01T22:19:59.132Z,1017.6
2017-08-01T22:20:58.598Z,1017.6
2017-08-01T22:21:58.066Z,1017.6
2017-08-01T22:23:57.053Z,1017.5
2017-08-01T22:24:56.273Z,1017.5
2017-08-01T22:25:55.970Z,1017.4
2017-08-01T22:26:55.167Z,1017.4
2017-08-01T22:27:54.386Z,1017.4
2017-08-01T22:28:54.095Z,1017.4
2017-08-01T22:29:53.302Z,1017.4
2017-08-01T22:30:53.008Z,1017.3
2017-08-01T22:31:52.357Z,1017.3
2017-08-01T22:32:52.060Z,1017.2
2017-08-01T22:33:22.460Z,1017.2
2017-08-01T22:33:52.970Z,1017.3
2017-08-01T22:34:23.366Z,1017.3
2017-08-01T22:34:53.781Z,1017.3
2017-08-01T22:35:24.182Z,1017.3
2017-08-01T22:35:54.596Z,1017.4
2017-08-01T22:36:25.123Z,1017.4
2017-08-01T22:36:55.513Z,1017.4
2017-08-01T22:38:48.577Z,1017.4
2017-08-01T22:39:47.936Z,1017.4
2017-08-01T22:40:47.148Z,1017.5
2017-08-01T22:41:46.516Z,1017.5
2017-08-01T22:42:46.389Z,1017.6
2017-08-01T22:43:45.474Z,1017.5
2017-08-01T22:44:45.179Z,1017.5
2017-08-01T22:45:44.388Z,1017.5
2017-08-01T22:46:43.971Z,1017.5
2017-08-01T22:47:43.560Z,1017.4
2017-08-01T22:48:42.758Z,1017.4
2017-08-01T22:49:41.988Z,1017.4
2017-08-01T22:50:41.585Z,1017.5
2017-08-01T22:51:41.295Z,1017.5
2017-08-01T22:52:40.517Z,1017.4
2017-08-01T22:53:39.742Z,1017.5
2017-08-01T22:54:39.218Z,1017.5
2017-08-01T22:55:38.950Z,1017.5
2017-08-01T22:56:38.154Z,1017.5
2017-08-01T22:57:37.868Z,1017.4
2017-08-01T22:58:37.085Z,1017.4
2017-08-01T22:59:36.285Z,1017.4
2017-08-01T23:00:36.006Z,1017.5
2017-08-01T23:01:35.205Z,1017.5
2017-08-01T23:02:34.713Z,1017.5
2017-08-01T23:03:34.417Z,1017.5
2017-08-01T23:04:33.892Z,1017.6
2017-08-01T23:05:32.991Z,1017.6
2017-08-01T23:06:32.572Z,1017.6
2017-08-01T23:07:31.780Z,1017.6
2017-08-01T23:08:31.382Z,1017.6
2017-08-01T23:09:30.971Z,1017.6
2017-08-01T23:10:30.434Z,1017.7
2017-08-01T23:11:29.641Z,1017.6
2017-08-01T23:12:29.245Z,1017.6
2017-08-01T23:14:28.113Z,1017.6
2017-08-01T23:15:27.247Z,1017.6
2017-08-01T23:16:26.962Z,1017.6
2017-08-01T23:17:26.159Z,1017.5
2017-08-01T23:18:25.528Z,1017.5
2017-08-01T23:19:25.241Z,1017.4
2017-08-01T23:20:24.322Z,1017.3
2017-08-01T23:21:23.916Z,1017.3
2017-08-01T23:22:23.507Z,1017.4
2017-08-01T23:23:22.976Z,1017.4
2017-08-01T23:24:22.327Z,1017.5
2017-08-01T23:26:20.940Z,1017.5
2017-08-01T23:27:20.542Z,1017.5
2017-08-01T23:28:19.780Z,1017.5
2017-08-01T23:29:19.501Z,1017.4
2017-08-01T23:30:18.627Z,1017.4
2017-08-01T23:30:49.044Z,1017.4
2017-08-01T23:32:17.709Z,1017.4
2017-08-01T23:33:16.919Z,1017.3
2017-08-01T23:34:16.500Z,1017.3
2017-08-01T23:35:16.080Z,1017.3
2017-08-01T23:36:15.282Z,1017.3
2017-08-01T23:37:14.867Z,1017.2
2017-08-01T23:38:14.084Z,1017.1
2017-08-01T23:39:13.795Z,1017.1
2017-08-01T23:40:13.003Z,1017.1
2017-08-01T23:41:12.710Z,1017.1
2017-08-01T23:42:11.929Z,1017.1
2017-08-01T23:44:11.023Z,1017.1
2017-08-01T23:45:10.502Z,1017
2017-08-01T23:46:09.588Z,1017
2017-08-01T23:47:09.076Z,1017
2017-08-01T23:48:08.673Z,1017
2017-08-01T23:49:07.887Z,1017
2017-08-01T23:50:07.478Z,1017
2017-08-01T23:51:07.060Z,1017.1
2017-08-01T23:52:06.154Z,1017.1
2017-08-01T23:53:05.868Z,1017.2
2017-08-01T23:54:05.070Z,1017.2
2017-08-01T23:55:04.667Z,1017.2
2017-08-01T23:56:03.885Z,1017.2
2017-08-01T23:57:03.484Z,1017.2
2017-08-01T23:58:02.958Z,1017.2
2017-08-01T23:59:02.174Z,1017.2
